sensor_id;sensor_type;location;lat;lon;timestamp;temperature;humidity
46309;DHT22;32037;50.820;6.494;2023-09-18T00:01:09;24.10;72.10
46309;DHT22;32037;50.820;6.494;2023-09-18T00:03:55;24.10;72.20
46309;DHT22;32037;50.820;6.494;2023-09-18T00:06:45;24.10;72.10
46309;DHT22;32037;50.820;6.494;2023-09-18T00:09:31;24.10;72.10
46309;DHT22;32037;50.820;6.494;2023-09-18T00:12:18;24.10;72.20
46309;DHT22;32037;50.820;6.494;2023-09-18T00:15:06;24.10;72.20
46309;DHT22;32037;50.820;6.494;2023-09-18T00:17:54;24.10;72.20
46309;DHT22;32037;50.820;6.494;2023-09-18T00:20:41;24.10;72.80
46309;DHT22;32037;50.820;6.494;2023-09-18T00:23:29;24.10;72.10
46309;DHT22;32037;50.820;6.494;2023-09-18T00:26:16;24.10;72.10
46309;DHT22;32037;50.820;6.494;2023-09-18T00:29:08;24.10;72.10
46309;DHT22;32037;50.820;6.494;2023-09-18T00:31:55;24.10;72.00
46309;DHT22;32037;50.820;6.494;2023-09-18T00:34:42;24.10;72.00
46309;DHT22;32037;50.820;6.494;2023-09-18T00:37:29;24.10;72.00
46309;DHT22;32037;50.820;6.494;2023-09-18T00:40:18;24.10;72.00
46309;DHT22;32037;50.820;6.494;2023-09-18T00:43:06;24.10;72.00
46309;DHT22;32037;50.820;6.494;2023-09-18T00:45:52;24.10;72.00
46309;DHT22;32037;50.820;6.494;2023-09-18T00:48:39;24.10;72.00
46309;DHT22;32037;50.820;6.494;2023-09-18T00:51:26;24.10;71.90
46309;DHT22;32037;50.820;6.494;2023-09-18T00:54:15;24.10;71.90
46309;DHT22;32037;50.820;6.494;2023-09-18T00:57:05;24.10;71.90
46309;DHT22;32037;50.820;6.494;2023-09-18T00:59:52;24.10;71.90
46309;DHT22;32037;50.820;6.494;2023-09-18T01:02:38;24.10;71.90
46309;DHT22;32037;50.820;6.494;2023-09-18T01:05:26;24.10;72.00
46309;DHT22;32037;50.820;6.494;2023-09-18T01:08:13;24.10;71.90
46309;DHT22;32037;50.820;6.494;2023-09-18T01:11:05;24.10;71.80
46309;DHT22;32037;50.820;6.494;2023-09-18T01:14:01;24.10;71.90
46309;DHT22;32037;50.820;6.494;2023-09-18T01:16:53;24.10;72.00
46309;DHT22;32037;50.820;6.494;2023-09-18T01:19:42;24.10;71.90
46309;DHT22;32037;50.820;6.494;2023-09-18T01:22:31;24.10;71.80
46309;DHT22;32037;50.820;6.494;2023-09-18T01:25:18;24.10;71.90
46309;DHT22;32037;50.820;6.494;2023-09-18T01:28:05;24.10;71.90
46309;DHT22;32037;50.820;6.494;2023-09-18T01:30:53;24.10;71.90
46309;DHT22;32037;50.820;6.494;2023-09-18T01:33:39;24.10;71.80
46309;DHT22;32037;50.820;6.494;2023-09-18T01:36:27;24.10;72.00
46309;DHT22;32037;50.820;6.494;2023-09-18T01:39:16;24.10;71.90
46309;DHT22;32037;50.820;6.494;2023-09-18T01:42:04;24.10;71.90
46309;DHT22;32037;50.820;6.494;2023-09-18T01:44:53;24.00;71.70
46309;DHT22;32037;50.820;6.494;2023-09-18T01:47:40;24.10;71.90
46309;DHT22;32037;50.820;6.494;2023-09-18T01:50:26;24.10;71.90
46309;DHT22;32037;50.820;6.494;2023-09-18T01:53:13;24.00;71.80
46309;DHT22;32037;50.820;6.494;2023-09-18T01:56:02;24.10;72.00
46309;DHT22;32037;50.820;6.494;2023-09-18T01:58:49;24.00;71.80
46309;DHT22;32037;50.820;6.494;2023-09-18T02:01:37;24.00;71.80
46309;DHT22;32037;50.820;6.494;2023-09-18T02:04:24;24.00;71.70
46309;DHT22;32037;50.820;6.494;2023-09-18T02:07:32;24.00;71.80
46309;DHT22;32037;50.820;6.494;2023-09-18T02:10:19;24.00;71.80
46309;DHT22;32037;50.820;6.494;2023-09-18T02:13:07;24.00;71.80
46309;DHT22;32037;50.820;6.494;2023-09-18T02:15:56;24.00;71.80
46309;DHT22;32037;50.820;6.494;2023-09-18T02:18:43;24.00;71.70
46309;DHT22;32037;50.820;6.494;2023-09-18T02:21:30;24.00;71.70
46309;DHT22;32037;50.820;6.494;2023-09-18T02:24:17;24.00;71.80
46309;DHT22;32037;50.820;6.494;2023-09-18T02:27:05;24.00;71.60
46309;DHT22;32037;50.820;6.494;2023-09-18T02:29:53;24.00;71.60
46309;DHT22;32037;50.820;6.494;2023-09-18T02:32:39;24.00;71.80
46309;DHT22;32037;50.820;6.494;2023-09-18T02:35:26;24.00;72.00
46309;DHT22;32037;50.820;6.494;2023-09-18T02:38:13;24.00;72.00
46309;DHT22;32037;50.820;6.494;2023-09-18T02:41:00;24.00;72.10
46309;DHT22;32037;50.820;6.494;2023-09-18T02:43:46;24.00;72.20
46309;DHT22;32037;50.820;6.494;2023-09-18T02:46:36;24.00;72.20
46309;DHT22;32037;50.820;6.494;2023-09-18T02:49:23;24.00;72.10
46309;DHT22;32037;50.820;6.494;2023-09-18T02:52:10;24.00;72.30
46309;DHT22;32037;50.820;6.494;2023-09-18T02:54:56;24.00;72.30
46309;DHT22;32037;50.820;6.494;2023-09-18T02:57:43;24.00;72.40
46309;DHT22;32037;50.820;6.494;2023-09-18T03:00:30;24.00;72.30
46309;DHT22;32037;50.820;6.494;2023-09-18T03:03:30;24.00;72.20
46309;DHT22;32037;50.820;6.494;2023-09-18T03:06:17;23.90;72.30
46309;DHT22;32037;50.820;6.494;2023-09-18T03:09:04;24.00;72.50
46309;DHT22;32037;50.820;6.494;2023-09-18T03:11:51;23.90;72.40
46309;DHT22;32037;50.820;6.494;2023-09-18T03:14:38;23.90;72.40
46309;DHT22;32037;50.820;6.494;2023-09-18T03:17:25;23.90;72.40
46309;DHT22;32037;50.820;6.494;2023-09-18T03:20:14;23.90;72.50
46309;DHT22;32037;50.820;6.494;2023-09-18T03:23:02;23.90;72.70
46309;DHT22;32037;50.820;6.494;2023-09-18T03:25:49;23.90;72.60
46309;DHT22;32037;50.820;6.494;2023-09-18T03:28:37;23.90;72.60
46309;DHT22;32037;50.820;6.494;2023-09-18T03:31:24;23.90;73.70
46309;DHT22;32037;50.820;6.494;2023-09-18T03:34:11;23.90;72.50
46309;DHT22;32037;50.820;6.494;2023-09-18T03:36:59;23.90;72.60
46309;DHT22;32037;50.820;6.494;2023-09-18T03:39:46;23.90;72.90
46309;DHT22;32037;50.820;6.494;2023-09-18T03:42:33;23.90;72.90
46309;DHT22;32037;50.820;6.494;2023-09-18T03:45:20;23.90;72.90
46309;DHT22;32037;50.820;6.494;2023-09-18T03:48:07;23.90;72.80
46309;DHT22;32037;50.820;6.494;2023-09-18T03:50:54;23.90;72.70
46309;DHT22;32037;50.820;6.494;2023-09-18T03:53:42;23.90;72.70
46309;DHT22;32037;50.820;6.494;2023-09-18T03:56:29;23.90;72.70
46309;DHT22;32037;50.820;6.494;2023-09-18T03:59:16;23.90;72.70
46309;DHT22;32037;50.820;6.494;2023-09-18T04:02:03;23.90;72.80
46309;DHT22;32037;50.820;6.494;2023-09-18T04:04:51;23.90;72.70
46309;DHT22;32037;50.820;6.494;2023-09-18T04:07:37;23.90;72.70
46309;DHT22;32037;50.820;6.494;2023-09-18T04:10:26;23.90;72.80
46309;DHT22;32037;50.820;6.494;2023-09-18T04:13:12;23.80;72.60
46309;DHT22;32037;50.820;6.494;2023-09-18T04:15:59;23.90;72.70
46309;DHT22;32037;50.820;6.494;2023-09-18T04:18:46;23.90;72.70
46309;DHT22;32037;50.820;6.494;2023-09-18T04:21:33;23.80;72.50
46309;DHT22;32037;50.820;6.494;2023-09-18T04:24:20;23.90;72.30
46309;DHT22;32037;50.820;6.494;2023-09-18T04:27:08;23.80;72.10
46309;DHT22;32037;50.820;6.494;2023-09-18T04:29:55;23.80;72.20
46309;DHT22;32037;50.820;6.494;2023-09-18T04:32:41;23.80;72.10
46309;DHT22;32037;50.820;6.494;2023-09-18T04:35:29;23.80;72.10
46309;DHT22;32037;50.820;6.494;2023-09-18T04:38:17;23.80;72.00
46309;DHT22;32037;50.820;6.494;2023-09-18T04:41:05;23.80;71.90
46309;DHT22;32037;50.820;6.494;2023-09-18T04:43:54;23.80;71.90
46309;DHT22;32037;50.820;6.494;2023-09-18T04:46:40;23.80;72.00
46309;DHT22;32037;50.820;6.494;2023-09-18T04:49:30;23.80;71.90
46309;DHT22;32037;50.820;6.494;2023-09-18T04:52:16;23.80;72.00
46309;DHT22;32037;50.820;6.494;2023-09-18T04:55:03;23.80;71.90
46309;DHT22;32037;50.820;6.494;2023-09-18T04:57:52;23.80;71.90
46309;DHT22;32037;50.820;6.494;2023-09-18T05:00:40;23.80;71.90
46309;DHT22;32037;50.820;6.494;2023-09-18T05:03:28;23.80;71.90
46309;DHT22;32037;50.820;6.494;2023-09-18T05:06:16;23.80;71.80
46309;DHT22;32037;50.820;6.494;2023-09-18T05:09:03;23.80;71.90
46309;DHT22;32037;50.820;6.494;2023-09-18T05:11:50;23.80;71.80
46309;DHT22;32037;50.820;6.494;2023-09-18T05:14:37;23.80;71.90
46309;DHT22;32037;50.820;6.494;2023-09-18T05:17:40;23.80;71.90
46309;DHT22;32037;50.820;6.494;2023-09-18T05:20:28;23.70;71.80
46309;DHT22;32037;50.820;6.494;2023-09-18T05:23:16;23.70;71.70
46309;DHT22;32037;50.820;6.494;2023-09-18T05:26:03;23.80;71.90
46309;DHT22;32037;50.820;6.494;2023-09-18T05:28:50;23.80;72.00
46309;DHT22;32037;50.820;6.494;2023-09-18T05:31:39;23.80;71.70
46309;DHT22;32037;50.820;6.494;2023-09-18T05:34:27;23.70;71.60
46309;DHT22;32037;50.820;6.494;2023-09-18T05:37:14;23.70;71.60
46309;DHT22;32037;50.820;6.494;2023-09-18T05:40:01;23.70;71.70
46309;DHT22;32037;50.820;6.494;2023-09-18T05:42:49;23.70;71.70
46309;DHT22;32037;50.820;6.494;2023-09-18T05:45:36;23.70;71.80
46309;DHT22;32037;50.820;6.494;2023-09-18T05:48:22;23.70;71.70
46309;DHT22;32037;50.820;6.494;2023-09-18T05:51:11;23.70;71.60
46309;DHT22;32037;50.820;6.494;2023-09-18T05:53:58;23.70;71.70
46309;DHT22;32037;50.820;6.494;2023-09-18T05:56:44;23.70;71.70
46309;DHT22;32037;50.820;6.494;2023-09-18T05:59:31;23.70;71.50
46309;DHT22;32037;50.820;6.494;2023-09-18T06:02:18;23.70;71.60
46309;DHT22;32037;50.820;6.494;2023-09-18T06:05:07;23.70;71.50
46309;DHT22;32037;50.820;6.494;2023-09-18T06:07:58;23.70;71.50
46309;DHT22;32037;50.820;6.494;2023-09-18T06:10:45;23.70;71.60
46309;DHT22;32037;50.820;6.494;2023-09-18T06:13:32;23.70;71.50
46309;DHT22;32037;50.820;6.494;2023-09-18T06:16:19;23.60;71.20
46309;DHT22;32037;50.820;6.494;2023-09-18T06:19:06;23.60;71.30
46309;DHT22;32037;50.820;6.494;2023-09-18T06:21:53;23.60;71.40
46309;DHT22;32037;50.820;6.494;2023-09-18T06:24:41;23.60;71.30
46309;DHT22;32037;50.820;6.494;2023-09-18T06:27:28;23.60;72.50
46309;DHT22;32037;50.820;6.494;2023-09-18T06:30:15;23.60;71.10
46309;DHT22;32037;50.820;6.494;2023-09-18T06:33:02;23.60;71.20
46309;DHT22;32037;50.820;6.494;2023-09-18T06:35:50;23.60;71.20
46309;DHT22;32037;50.820;6.494;2023-09-18T06:38:38;23.60;71.20
46309;DHT22;32037;50.820;6.494;2023-09-18T06:41:26;23.60;71.30
46309;DHT22;32037;50.820;6.494;2023-09-18T06:44:13;23.60;71.20
46309;DHT22;32037;50.820;6.494;2023-09-18T06:47:00;23.60;71.30
46309;DHT22;32037;50.820;6.494;2023-09-18T06:49:47;23.60;71.10
46309;DHT22;32037;50.820;6.494;2023-09-18T06:52:33;23.60;71.30
46309;DHT22;32037;50.820;6.494;2023-09-18T06:55:20;23.60;71.30
46309;DHT22;32037;50.820;6.494;2023-09-18T06:58:09;23.60;71.40
46309;DHT22;32037;50.820;6.494;2023-09-18T07:00:55;23.60;71.30
46309;DHT22;32037;50.820;6.494;2023-09-18T07:03:44;23.60;71.20
46309;DHT22;32037;50.820;6.494;2023-09-18T07:06:32;23.60;71.00
46309;DHT22;32037;50.820;6.494;2023-09-18T07:09:19;23.60;71.20
46309;DHT22;32037;50.820;6.494;2023-09-18T07:12:08;23.60;71.00
46309;DHT22;32037;50.820;6.494;2023-09-18T07:14:58;23.60;71.00
46309;DHT22;32037;50.820;6.494;2023-09-18T07:17:44;23.60;70.80
46309;DHT22;32037;50.820;6.494;2023-09-18T07:20:31;23.60;70.80
46309;DHT22;32037;50.820;6.494;2023-09-18T07:23:17;23.60;70.90
46309;DHT22;32037;50.820;6.494;2023-09-18T07:26:04;23.60;71.00
46309;DHT22;32037;50.820;6.494;2023-09-18T07:28:52;23.50;70.80
46309;DHT22;32037;50.820;6.494;2023-09-18T07:31:41;23.50;70.90
46309;DHT22;32037;50.820;6.494;2023-09-18T07:34:28;23.50;70.90
46309;DHT22;32037;50.820;6.494;2023-09-18T07:37:15;23.50;70.80
46309;DHT22;32037;50.820;6.494;2023-09-18T07:40:07;23.50;70.60
46309;DHT22;32037;50.820;6.494;2023-09-18T07:42:53;23.50;70.60
46309;DHT22;32037;50.820;6.494;2023-09-18T07:45:40;23.50;70.50
46309;DHT22;32037;50.820;6.494;2023-09-18T07:48:29;23.50;70.50
46309;DHT22;32037;50.820;6.494;2023-09-18T07:51:15;23.50;70.20
46309;DHT22;32037;50.820;6.494;2023-09-18T07:54:02;23.50;70.20
46309;DHT22;32037;50.820;6.494;2023-09-18T07:56:49;23.50;69.90
46309;DHT22;32037;50.820;6.494;2023-09-18T07:59:36;23.50;69.60
46309;DHT22;32037;50.820;6.494;2023-09-18T08:02:25;23.50;69.90
46309;DHT22;32037;50.820;6.494;2023-09-18T08:05:16;23.50;69.90
46309;DHT22;32037;50.820;6.494;2023-09-18T08:08:03;23.50;69.80
46309;DHT22;32037;50.820;6.494;2023-09-18T08:10:51;23.50;69.70
46309;DHT22;32037;50.820;6.494;2023-09-18T08:13:38;23.50;69.60
46309;DHT22;32037;50.820;6.494;2023-09-18T08:16:25;23.50;69.40
46309;DHT22;32037;50.820;6.494;2023-09-18T08:19:15;23.50;69.40
46309;DHT22;32037;50.820;6.494;2023-09-18T08:22:04;23.50;69.50
46309;DHT22;32037;50.820;6.494;2023-09-18T08:24:50;23.50;69.40
46309;DHT22;32037;50.820;6.494;2023-09-18T08:27:38;23.50;69.20
46309;DHT22;32037;50.820;6.494;2023-09-18T08:30:28;23.50;69.50
46309;DHT22;32037;50.820;6.494;2023-09-18T08:33:14;23.50;69.70
46309;DHT22;32037;50.820;6.494;2023-09-18T08:36:01;23.50;69.40
46309;DHT22;32037;50.820;6.494;2023-09-18T08:38:49;23.50;69.40
46309;DHT22;32037;50.820;6.494;2023-09-18T08:41:40;23.50;70.90
46309;DHT22;32037;50.820;6.494;2023-09-18T08:44:28;23.50;69.70
46309;DHT22;32037;50.820;6.494;2023-09-18T08:47:14;23.50;69.70
46309;DHT22;32037;50.820;6.494;2023-09-18T08:50:01;23.50;69.80
46309;DHT22;32037;50.820;6.494;2023-09-18T08:52:49;23.50;69.70
46309;DHT22;32037;50.820;6.494;2023-09-18T08:55:37;23.50;69.80
46309;DHT22;32037;50.820;6.494;2023-09-18T08:58:24;23.40;69.70
46309;DHT22;32037;50.820;6.494;2023-09-18T09:01:11;23.40;69.50
46309;DHT22;32037;50.820;6.494;2023-09-18T09:04:00;23.40;69.60
46309;DHT22;32037;50.820;6.494;2023-09-18T09:06:48;23.40;69.60
46309;DHT22;32037;50.820;6.494;2023-09-18T09:09:35;23.40;69.60
46309;DHT22;32037;50.820;6.494;2023-09-18T09:12:48;23.40;69.40
46309;DHT22;32037;50.820;6.494;2023-09-18T09:15:44;23.40;69.70
46309;DHT22;32037;50.820;6.494;2023-09-18T09:18:32;23.40;69.40
46309;DHT22;32037;50.820;6.494;2023-09-18T09:21:21;23.40;69.70
46309;DHT22;32037;50.820;6.494;2023-09-18T09:24:08;23.40;69.40
46309;DHT22;32037;50.820;6.494;2023-09-18T09:26:59;23.40;69.50
46309;DHT22;32037;50.820;6.494;2023-09-18T09:29:59;23.40;69.60
46309;DHT22;32037;50.820;6.494;2023-09-18T09:32:48;23.40;69.70
46309;DHT22;32037;50.820;6.494;2023-09-18T09:35:37;23.50;69.70
46309;DHT22;32037;50.820;6.494;2023-09-18T09:38:29;23.40;69.40
46309;DHT22;32037;50.820;6.494;2023-09-18T09:41:17;23.40;69.50
46309;DHT22;32037;50.820;6.494;2023-09-18T09:44:05;23.40;69.40
46309;DHT22;32037;50.820;6.494;2023-09-18T09:46:53;23.40;69.50
46309;DHT22;32037;50.820;6.494;2023-09-18T09:49:45;23.40;69.50
46309;DHT22;32037;50.820;6.494;2023-09-18T09:52:33;23.40;69.70
46309;DHT22;32037;50.820;6.494;2023-09-18T09:55:25;23.40;69.80
46309;DHT22;32037;50.820;6.494;2023-09-18T09:58:13;23.40;69.90
46309;DHT22;32037;50.820;6.494;2023-09-18T10:01:03;23.40;70.00
46309;DHT22;32037;50.820;6.494;2023-09-18T10:03:56;23.40;70.00
46309;DHT22;32037;50.820;6.494;2023-09-18T10:06:44;23.40;70.00
46309;DHT22;32037;50.820;6.494;2023-09-18T10:09:34;23.40;70.10
46309;DHT22;32037;50.820;6.494;2023-09-18T10:12:21;23.40;69.90
46309;DHT22;32037;50.820;6.494;2023-09-18T10:15:11;23.40;70.00
46309;DHT22;32037;50.820;6.494;2023-09-18T10:18:02;23.40;70.00
46309;DHT22;32037;50.820;6.494;2023-09-18T10:20:57;23.40;70.00
46309;DHT22;32037;50.820;6.494;2023-09-18T10:23:56;23.40;70.00
46309;DHT22;32037;50.820;6.494;2023-09-18T10:26:50;23.40;69.90
46309;DHT22;32037;50.820;6.494;2023-09-18T10:29:37;23.40;70.00
46309;DHT22;32037;50.820;6.494;2023-09-18T10:32:26;23.40;69.80
46309;DHT22;32037;50.820;6.494;2023-09-18T10:35:14;23.40;69.90
46309;DHT22;32037;50.820;6.494;2023-09-18T10:38:05;23.40;69.70
46309;DHT22;32037;50.820;6.494;2023-09-18T10:40:53;23.40;69.50
46309;DHT22;32037;50.820;6.494;2023-09-18T10:43:40;23.40;69.60
46309;DHT22;32037;50.820;6.494;2023-09-18T10:46:28;23.50;69.60
46309;DHT22;32037;50.820;6.494;2023-09-18T10:49:14;23.40;69.40
46309;DHT22;32037;50.820;6.494;2023-09-18T10:52:01;23.40;69.40
46309;DHT22;32037;50.820;6.494;2023-09-18T10:54:51;23.40;69.40
46309;DHT22;32037;50.820;6.494;2023-09-18T10:57:37;23.40;69.40
46309;DHT22;32037;50.820;6.494;2023-09-18T11:00:25;23.40;69.10
46309;DHT22;32037;50.820;6.494;2023-09-18T11:03:14;23.50;69.10
46309;DHT22;32037;50.820;6.494;2023-09-18T11:06:05;23.40;69.00
46309;DHT22;32037;50.820;6.494;2023-09-18T11:08:59;23.50;68.90
46309;DHT22;32037;50.820;6.494;2023-09-18T11:11:52;23.40;68.60
46309;DHT22;32037;50.820;6.494;2023-09-18T11:14:47;23.40;68.60
46309;DHT22;32037;50.820;6.494;2023-09-18T11:17:36;23.40;68.50
46309;DHT22;32037;50.820;6.494;2023-09-18T11:20:24;23.50;68.80
46309;DHT22;32037;50.820;6.494;2023-09-18T11:23:16;23.40;68.80
46309;DHT22;32037;50.820;6.494;2023-09-18T11:26:05;23.40;68.70
46309;DHT22;32037;50.820;6.494;2023-09-18T11:28:54;23.40;68.80
46309;DHT22;32037;50.820;6.494;2023-09-18T11:31:44;23.40;68.50
46309;DHT22;32037;50.820;6.494;2023-09-18T11:34:32;23.40;68.50
46309;DHT22;32037;50.820;6.494;2023-09-18T11:37:20;23.40;68.40
46309;DHT22;32037;50.820;6.494;2023-09-18T11:40:28;23.40;68.30
46309;DHT22;32037;50.820;6.494;2023-09-18T11:43:23;23.40;67.90
46309;DHT22;32037;50.820;6.494;2023-09-18T11:46:17;23.50;69.50
46309;DHT22;32037;50.820;6.494;2023-09-18T11:49:07;23.40;67.80
46309;DHT22;32037;50.820;6.494;2023-09-18T11:51:58;23.40;67.80
46309;DHT22;32037;50.820;6.494;2023-09-18T11:54:45;23.50;68.50
46309;DHT22;32037;50.820;6.494;2023-09-18T11:57:35;23.50;68.40
46309;DHT22;32037;50.820;6.494;2023-09-18T12:00:22;23.50;68.20
46309;DHT22;32037;50.820;6.494;2023-09-18T12:03:18;23.40;67.90
46309;DHT22;32037;50.820;6.494;2023-09-18T12:06:11;23.40;68.30
46309;DHT22;32037;50.820;6.494;2023-09-18T12:08:59;23.50;68.00
46309;DHT22;32037;50.820;6.494;2023-09-18T12:11:45;23.40;67.30
46309;DHT22;32037;50.820;6.494;2023-09-18T12:14:34;23.40;67.50
46309;DHT22;32037;50.820;6.494;2023-09-18T12:17:22;23.40;67.50
46309;DHT22;32037;50.820;6.494;2023-09-18T12:20:16;23.50;67.60
46309;DHT22;32037;50.820;6.494;2023-09-18T12:23:07;23.40;67.10
46309;DHT22;32037;50.820;6.494;2023-09-18T12:25:59;23.50;67.20
46309;DHT22;32037;50.820;6.494;2023-09-18T12:28:46;23.50;67.30
46309;DHT22;32037;50.820;6.494;2023-09-18T12:31:32;23.50;67.20
46309;DHT22;32037;50.820;6.494;2023-09-18T12:34:21;23.50;67.20
46309;DHT22;32037;50.820;6.494;2023-09-18T12:37:12;23.50;67.30
46309;DHT22;32037;50.820;6.494;2023-09-18T12:39:59;23.50;67.20
46309;DHT22;32037;50.820;6.494;2023-09-18T12:42:47;23.50;67.30
46309;DHT22;32037;50.820;6.494;2023-09-18T12:45:34;23.50;67.30
46309;DHT22;32037;50.820;6.494;2023-09-18T12:48:21;23.50;67.30
46309;DHT22;32037;50.820;6.494;2023-09-18T12:51:08;23.50;67.20
46309;DHT22;32037;50.820;6.494;2023-09-18T12:54:00;23.50;67.20
46309;DHT22;32037;50.820;6.494;2023-09-18T12:56:52;23.50;67.20
46309;DHT22;32037;50.820;6.494;2023-09-18T12:59:39;23.50;67.20
46309;DHT22;32037;50.820;6.494;2023-09-18T13:02:26;23.50;67.20
46309;DHT22;32037;50.820;6.494;2023-09-18T13:05:19;23.50;67.20
46309;DHT22;32037;50.820;6.494;2023-09-18T13:08:06;23.50;67.30
46309;DHT22;32037;50.820;6.494;2023-09-18T13:10:55;23.50;67.20
46309;DHT22;32037;50.820;6.494;2023-09-18T13:13:42;23.50;67.20
46309;DHT22;32037;50.820;6.494;2023-09-18T13:16:30;23.50;67.20
46309;DHT22;32037;50.820;6.494;2023-09-18T13:19:17;23.50;67.00
46309;DHT22;32037;50.820;6.494;2023-09-18T13:22:04;23.50;67.00
46309;DHT22;32037;50.820;6.494;2023-09-18T13:24:55;23.50;66.40
46309;DHT22;32037;50.820;6.494;2023-09-18T13:27:44;23.50;67.20
46309;DHT22;32037;50.820;6.494;2023-09-18T13:30:31;23.50;66.20
46309;DHT22;32037;50.820;6.494;2023-09-18T13:33:19;23.50;66.40
46309;DHT22;32037;50.820;6.494;2023-09-18T13:36:07;23.50;67.20
46309;DHT22;32037;50.820;6.494;2023-09-18T13:38:54;23.50;66.40
46309;DHT22;32037;50.820;6.494;2023-09-18T13:41:41;23.50;66.80
46309;DHT22;32037;50.820;6.494;2023-09-18T13:44:30;23.50;65.70
46309;DHT22;32037;50.820;6.494;2023-09-18T13:47:17;23.50;66.00
46309;DHT22;32037;50.820;6.494;2023-09-18T13:50:05;23.50;66.30
46309;DHT22;32037;50.820;6.494;2023-09-18T13:52:52;23.50;67.00
46309;DHT22;32037;50.820;6.494;2023-09-18T13:55:39;23.50;65.90
46309;DHT22;32037;50.820;6.494;2023-09-18T13:58:27;23.50;65.90
46309;DHT22;32037;50.820;6.494;2023-09-18T14:01:15;23.50;66.00
46309;DHT22;32037;50.820;6.494;2023-09-18T14:04:02;23.50;65.40
46309;DHT22;32037;50.820;6.494;2023-09-18T14:06:49;23.50;65.30
46309;DHT22;32037;50.820;6.494;2023-09-18T14:09:36;23.50;65.10
46309;DHT22;32037;50.820;6.494;2023-09-18T14:12:23;23.50;65.70
46309;DHT22;32037;50.820;6.494;2023-09-18T14:15:10;23.50;65.70
46309;DHT22;32037;50.820;6.494;2023-09-18T14:17:59;23.50;65.70
46309;DHT22;32037;50.820;6.494;2023-09-18T14:20:46;23.50;65.50
46309;DHT22;32037;50.820;6.494;2023-09-18T14:23:33;23.50;65.80
46309;DHT22;32037;50.820;6.494;2023-09-18T14:26:20;23.50;66.00
46309;DHT22;32037;50.820;6.494;2023-09-18T14:29:08;23.50;65.70
46309;DHT22;32037;50.820;6.494;2023-09-18T14:31:54;23.50;65.30
46309;DHT22;32037;50.820;6.494;2023-09-18T14:34:44;23.50;65.70
46309;DHT22;32037;50.820;6.494;2023-09-18T14:37:31;23.50;65.80
46309;DHT22;32037;50.820;6.494;2023-09-18T14:40:18;23.60;65.90
46309;DHT22;32037;50.820;6.494;2023-09-18T14:43:06;23.50;65.50
46309;DHT22;32037;50.820;6.494;2023-09-18T14:45:53;23.50;65.70
46309;DHT22;32037;50.820;6.494;2023-09-18T14:48:41;23.60;65.80
46309;DHT22;32037;50.820;6.494;2023-09-18T14:51:29;23.50;65.80
46309;DHT22;32037;50.820;6.494;2023-09-18T14:54:16;23.50;65.70
46309;DHT22;32037;50.820;6.494;2023-09-18T14:57:02;23.60;65.70
46309;DHT22;32037;50.820;6.494;2023-09-18T14:59:49;23.50;65.40
46309;DHT22;32037;50.820;6.494;2023-09-18T15:02:36;23.60;65.60
46309;DHT22;32037;50.820;6.494;2023-09-18T15:05:23;23.50;65.70
46309;DHT22;32037;50.820;6.494;2023-09-18T15:08:11;23.60;65.90
46309;DHT22;32037;50.820;6.494;2023-09-18T15:10:57;23.60;65.60
46309;DHT22;32037;50.820;6.494;2023-09-18T15:13:44;23.60;65.70
46309;DHT22;32037;50.820;6.494;2023-09-18T15:16:30;23.60;65.70
46309;DHT22;32037;50.820;6.494;2023-09-18T15:19:17;23.60;65.60
46309;DHT22;32037;50.820;6.494;2023-09-18T15:22:05;23.60;65.60
46309;DHT22;32037;50.820;6.494;2023-09-18T15:24:54;23.60;65.80
46309;DHT22;32037;50.820;6.494;2023-09-18T15:27:44;23.60;65.70
46309;DHT22;32037;50.820;6.494;2023-09-18T15:30:32;23.60;65.50
46309;DHT22;32037;50.820;6.494;2023-09-18T15:33:21;23.60;65.30
46309;DHT22;32037;50.820;6.494;2023-09-18T15:36:09;23.60;65.10
46309;DHT22;32037;50.820;6.494;2023-09-18T15:38:55;23.60;66.80
46309;DHT22;32037;50.820;6.494;2023-09-18T15:41:43;23.60;65.10
46309;DHT22;32037;50.820;6.494;2023-09-18T15:44:30;23.60;65.20
46309;DHT22;32037;50.820;6.494;2023-09-18T15:47:17;23.60;65.20
46309;DHT22;32037;50.820;6.494;2023-09-18T15:50:04;23.60;65.30
46309;DHT22;32037;50.820;6.494;2023-09-18T15:52:51;23.60;65.20
46309;DHT22;32037;50.820;6.494;2023-09-18T15:55:37;23.60;65.80
46309;DHT22;32037;50.820;6.494;2023-09-18T15:58:25;23.60;65.20
46309;DHT22;32037;50.820;6.494;2023-09-18T16:01:12;23.60;64.90
46309;DHT22;32037;50.820;6.494;2023-09-18T16:04:01;23.60;64.70
46309;DHT22;32037;50.820;6.494;2023-09-18T16:06:48;23.60;65.20
46309;DHT22;32037;50.820;6.494;2023-09-18T16:09:35;23.60;65.00
46309;DHT22;32037;50.820;6.494;2023-09-18T16:12:21;23.60;65.10
46309;DHT22;32037;50.820;6.494;2023-09-18T16:15:10;23.60;65.10
46309;DHT22;32037;50.820;6.494;2023-09-18T16:17:56;23.60;64.70
46309;DHT22;32037;50.820;6.494;2023-09-18T16:20:43;23.60;65.00
46309;DHT22;32037;50.820;6.494;2023-09-18T16:23:30;23.70;64.80
46309;DHT22;32037;50.820;6.494;2023-09-18T16:26:16;23.70;64.40
46309;DHT22;32037;50.820;6.494;2023-09-18T16:29:03;23.60;64.20
46309;DHT22;32037;50.820;6.494;2023-09-18T16:31:52;23.60;64.50
46309;DHT22;32037;50.820;6.494;2023-09-18T16:34:39;23.70;64.80
46309;DHT22;32037;50.820;6.494;2023-09-18T16:37:26;23.70;64.40
46309;DHT22;32037;50.820;6.494;2023-09-18T16:40:13;23.70;64.40
46309;DHT22;32037;50.820;6.494;2023-09-18T16:43:00;23.70;63.60
46309;DHT22;32037;50.820;6.494;2023-09-18T16:45:47;23.70;63.90
46309;DHT22;32037;50.820;6.494;2023-09-18T16:48:35;23.70;64.20
46309;DHT22;32037;50.820;6.494;2023-09-18T16:51:22;23.70;64.00
46309;DHT22;32037;50.820;6.494;2023-09-18T16:54:09;23.70;64.00
46309;DHT22;32037;50.820;6.494;2023-09-18T16:57:01;23.70;64.10
46309;DHT22;32037;50.820;6.494;2023-09-18T16:59:47;23.70;63.80
46309;DHT22;32037;50.820;6.494;2023-09-18T17:02:34;23.70;63.70
46309;DHT22;32037;50.820;6.494;2023-09-18T17:05:23;23.70;63.60
46309;DHT22;32037;50.820;6.494;2023-09-18T17:08:10;23.70;63.60
46309;DHT22;32037;50.820;6.494;2023-09-18T17:10:57;23.70;63.90
46309;DHT22;32037;50.820;6.494;2023-09-18T17:13:43;23.70;64.00
46309;DHT22;32037;50.820;6.494;2023-09-18T17:16:30;23.70;64.20
46309;DHT22;32037;50.820;6.494;2023-09-18T17:19:21;23.70;63.70
46309;DHT22;32037;50.820;6.494;2023-09-18T17:22:09;23.70;63.80
46309;DHT22;32037;50.820;6.494;2023-09-18T17:24:56;23.70;64.20
46309;DHT22;32037;50.820;6.494;2023-09-18T17:27:42;23.70;63.80
46309;DHT22;32037;50.820;6.494;2023-09-18T17:30:29;23.70;63.90
46309;DHT22;32037;50.820;6.494;2023-09-18T17:33:16;23.70;63.70
46309;DHT22;32037;50.820;6.494;2023-09-18T17:36:03;23.70;63.80
46309;DHT22;32037;50.820;6.494;2023-09-18T17:38:51;23.70;63.80
46309;DHT22;32037;50.820;6.494;2023-09-18T17:41:38;23.70;64.30